Map

Track Data

SID SEASON NUMBER BASIN SUBBASIN NAME ISO_TIME NATURE LAT LON WMO_WIND WMO_PRES WMO_AGENCY TRACK_TYPE DIST2LAND LANDFALL IFLAG USA_AGENCY USA_ATCF_ID USA_LAT USA_LON USA_RECORD USA_STATUS USA_WIND USA_PRES USA_SSHS USA_R34_NE USA_R34_SE USA_R34_SW USA_R34_NW USA_R50_NE USA_R50_SE USA_R50_SW USA_R50_NW USA_R64_NE USA_R64_SE USA_R64_SW USA_R64_NW USA_POCI USA_ROCI USA_RMW USA_EYE TOKYO_LAT TOKYO_LON TOKYO_GRADE TOKYO_WIND TOKYO_PRES TOKYO_R50_DIR TOKYO_R50_LONG TOKYO_R50_SHORT TOKYO_R30_DIR TOKYO_R30_LONG TOKYO_R30_SHORT TOKYO_LAND CMA_LAT CMA_LON CMA_CAT CMA_WIND CMA_PRES HKO_LAT HKO_LON HKO_CAT HKO_WIND HKO_PRES NEWDELHI_LAT NEWDELHI_LON NEWDELHI_GRADE NEWDELHI_WIND NEWDELHI_PRES NEWDELHI_CI NEWDELHI_DP NEWDELHI_POCI REUNION_LAT REUNION_LON REUNION_TYPE REUNION_WIND REUNION_PRES REUNION_TNUM REUNION_CI REUNION_RMW REUNION_R34_NE REUNION_R34_SE REUNION_R34_SW REUNION_R34_NW REUNION_R50_NE REUNION_R50_SE REUNION_R50_SW REUNION_R50_NW REUNION_R64_NE REUNION_R64_SE REUNION_R64_SW REUNION_R64_NW BOM_LAT BOM_LON BOM_TYPE BOM_WIND BOM_PRES BOM_TNUM BOM_CI BOM_RMW BOM_R34_NE BOM_R34_SE BOM_R34_SW BOM_R34_NW BOM_R50_NE BOM_R50_SE BOM_R50_SW BOM_R50_NW BOM_R64_NE BOM_R64_SE BOM_R64_SW BOM_R64_NW BOM_ROCI BOM_POCI BOM_EYE BOM_POS_METHOD BOM_PRES_METHOD NADI_LAT NADI_LON NADI_CAT NADI_WIND NADI_PRES WELLINGTON_LAT WELLINGTON_LON WELLINGTON_WIND WELLINGTON_PRES DS824_LAT DS824_LON DS824_STAGE DS824_WIND DS824_PRES TD9636_LAT TD9636_LON TD9636_STAGE TD9636_WIND TD9636_PRES TD9635_LAT TD9635_LON TD9635_WIND TD9635_PRES TD9635_ROCI NEUMANN_LAT NEUMANN_LON NEUMANN_CLASS NEUMANN_WIND NEUMANN_PRES MLC_LAT MLC_LON MLC_CLASS MLC_WIND MLC_PRES USA_GUST BOM_GUST BOM_GUST_PER REUNION_GUST REUNION_GUST_PER USA_SEAHGT USA_SEARAD_NE USA_SEARAD_SE USA_SEARAD_SW USA_SEARAD_NW STORM_SPEED STORM_DIR
1930207N15144 1930 36 WP MM NOT_NAMED 1930-07-26 10:00:00 NR 14.8000 143.900 main 1916 1916 __________O___ -1 14.8000 143.900 7 22 329
1930207N15144 1930 36 WP MM NOT_NAMED 1930-07-26 12:00:00 NR 15.4225 143.513 main 1976 1930 __________P___ -1 15.4225 143.513 7 21 329
1930207N15144 1930 36 WP MM NOT_NAMED 1930-07-26 15:00:00 NR 16.3163 142.945 main 1930 1898 __________P___ -1 16.3163 142.945 7 20 328
1930207N15144 1930 36 WP MM NOT_NAMED 1930-07-26 18:00:00 NR 17.1078 142.411 main 1898 1856 __________P___ -1 17.1078 142.411 7 17 326
1930207N15144 1930 36 WP MM NOT_NAMED 1930-07-26 21:00:00 NR 17.7368 141.939 main 1856 1831 __________P___ -1 17.7368 141.939 7 15 324
1930207N15144 1930 36 WP MM NOT_NAMED 1930-07-26 22:00:00 NR 17.9000 141.800 main 1831 1793 __________O___ -1 17.9000 141.800 7 11 318
1930207N15144 1930 36 WP MM NOT_NAMED 1930-07-27 00:00:00 NR 18.1508 141.552 main 1793 1754 __________P___ -1 18.1508 141.552 7 9 312
1930207N15144 1930 36 WP MM NOT_NAMED 1930-07-27 03:00:00 NR 18.3823 141.245 main 1754 1733 __________P___ -1 18.3823 141.245 7 6 305
1930207N15144 1930 36 WP MM NOT_NAMED 1930-07-27 06:00:00 NR 18.5179 140.994 main 1733 1713 __________P___ -1 18.5179 140.994 7 5 300
1930207N15144 1930 36 WP MM NOT_NAMED 1930-07-27 09:00:00 NR 18.6447 140.772 main 1713 1698 __________P___ -1 18.6447 140.772 7 5 303
1930207N15144 1930 36 WP MM NOT_NAMED 1930-07-27 10:00:00 NR 18.7000 140.700 main 1698 1667 __________O___ -1 18.7000 140.700 7 7 311
1930207N15144 1930 36 WP MM NOT_NAMED 1930-07-27 12:00:00 NR 18.8646 140.502 main 1667 1632 __________P___ -1 18.8646 140.502 7 8 314
1930207N15144 1930 36 WP MM NOT_NAMED 1930-07-27 15:00:00 NR 19.1425 140.218 main 1632 1583 __________P___ -1 19.1425 140.218 7 8 321
1930207N15144 1930 36 WP MM NOT_NAMED 1930-07-27 18:00:00 NR 19.4685 139.980 main 1583 1534 __________P___ -1 19.4685 139.980 7 8 333
1930207N15144 1930 36 WP MM NOT_NAMED 1930-07-27 21:00:00 NR 19.8554 139.826 main 1534 1524 __________P___ -1 19.8554 139.826 7 8 343
1930207N15144 1930 36 WP MM NOT_NAMED 1930-07-27 22:00:00 NR 20.0000 139.800 main 1524 1496 __________O___ -1 20.0000 139.800 7 10 356
1930207N15144 1930 36 WP MM NOT_NAMED 1930-07-28 00:00:00 NR 20.3387 139.787 main 1496 1440 __________P___ -1 20.3387 139.787 7 11 3
1930207N15144 1930 36 WP MM NOT_NAMED 1930-07-28 03:00:00 NR 20.9042 139.856 main 1445 1391 __________P___ -1 20.9042 139.856 7 12 10
1930207N15144 1930 36 WP MM NOT_NAMED 1930-07-28 06:00:00 NR 21.4886 140.009 main 1391 1344 __________P___ -1 21.4886 140.009 7 12 17
1930207N15144 1930 36 WP MM NOT_NAMED 1930-07-28 09:00:00 NR 22.0357 140.221 main 1344 1325 __________P___ -1 22.0357 140.221 7 11 21
1930207N15144 1930 36 WP MM NOT_NAMED 1930-07-28 10:00:00 NR 22.2000 140.300 main 1325 1297 __________O___ -1 22.2000 140.300 3 10 26
1930207N15144 1930 36 WP MM NOT_NAMED 1930-07-28 12:00:00 NR 22.4654 140.442 main 1297 1273 __________P___ -1 22.4654 140.442 3 9 31
1930207N15144 1930 36 WP MM NOT_NAMED 1930-07-28 15:00:00 NR 22.8066 140.691 main 1276 1252 __________P___ -1 22.8066 140.691 3 8 38
1930207N15144 1930 36 WP MM NOT_NAMED 1930-07-28 18:00:00 NR 23.1075 140.978 main 1256 1238 __________P___ -1 23.1075 140.978 3 8 43
1930207N15144 1930 36 WP MM NOT_NAMED 1930-07-28 21:00:00 NR 23.3993 141.291 main 1238 1232 __________P___ -1 23.3993 141.291 3 8 45
1930207N15144 1930 36 WP MM NOT_NAMED 1930-07-28 22:00:00 NR 23.5000 141.400 main 1232 1221 __________O___ -1 23.5000 141.400 4 9 43
1930207N15144 1930 36 WP MM NOT_NAMED 1930-07-29 00:00:00 NR 23.7251 141.624 main 1221 1200 __________P___ -1 23.7251 141.624 4 9 43
1930207N15144 1930 36 WP MM NOT_NAMED 1930-07-29 03:00:00 NR 24.0690 141.979 main 1200 1186 __________P___ -1 24.0690 141.979 4 10 43
1930207N15144 1930 36 WP MM NOT_NAMED 1930-07-29 06:00:00 NR 24.4202 142.341 main 1186 1156 __________P___ -1 24.4202 142.341 4 10 42
1930207N15144 1930 36 WP MM NOT_NAMED 1930-07-29 09:00:00 NR 24.7788 142.690 main 1156 1148 __________P___ -1 24.7788 142.690 4 10 41
1930207N15144 1930 36 WP MM NOT_NAMED 1930-07-29 10:00:00 NR 24.9000 142.800 main 1148 1130 __________O___ -1 24.9000 142.800 4 9 38
1930207N15144 1930 36 WP MM NOT_NAMED 1930-07-29 12:00:00 NR 25.1448 143.009 main 1133 1098 __________P___ -1 25.1448 143.009 4 9 36
1930207N15144 1930 36 WP MM NOT_NAMED 1930-07-29 15:00:00 NR 25.5173 143.296 main 1098 1061 __________P___ -1 25.5173 143.296 4 9 34
1930207N15144 1930 36 WP MM NOT_NAMED 1930-07-29 18:00:00 NR 25.8941 143.562 main 1064 1029 __________P___ -1 25.8941 143.562 4 9 32
1930207N15144 1930 36 WP MM NOT_NAMED 1930-07-29 21:00:00 NR 26.2734 143.816 main 1029 1022 __________P___ -1 26.2734 143.816 4 9 31
1930207N15144 1930 36 WP MM NOT_NAMED 1930-07-29 22:00:00 NR 26.4000 143.900 main 1022 __________O___ -1 26.4000 143.900 4 9 31

Digital Typhoon Data and Search

About IBTrACS Database

This database is a web-friendly format of International Best Track Archive for Climate Stewardship (IBTrACS), a global best track data archive curated by NOAA dating back to 1842.

Updated: 2021-10-08